RYR687 LOWW-EHEH
Flight info
| Callsign | RYR687 |
|---|---|
| Flight time | 1h 25m |
| Altitude | 36000 |
| Route | BUWUT DCT DITIS DCT BALTU DCT VEXIL DCT KATCE DCT WRB DCT DOMEG DCT ROTEK |
| Aircraft | A320/M-SDE3FGHIRWY/LB1 |
Departure
| Time | 2026-04-26 21:44 |
|---|---|
| Airport | Vienna International Airport (LOWW) |
Arrival
| Time | 2026-04-26 23:09 |
|---|---|
| Airport | Eindhoven Airport (EHEH) |
| Time | Latitude | Longitude | Altitude | Speed | Heading |
|---|---|---|---|---|---|
| 2026-04-26 21:13 | 48.11974 | 16.55842 | 620 ft | 0 kts | 294° |
| 2026-04-26 21:31 | 48.11968 | 16.55860 | 627 ft | 4 kts | 292° |
| 2026-04-26 21:31 | 48.11960 | 16.55898 | 625 ft | 4 kts | 280° |
| 2026-04-26 21:32 | 48.11959 | 16.55936 | 623 ft | 4 kts | 245° |
| 2026-04-26 21:32 | 48.11969 | 16.55955 | 625 ft | 1 kts | 205° |
| 2026-04-26 21:32 | 48.11971 | 16.55956 | 625 ft | 0 kts | 205° |
| 2026-04-26 21:34 | 48.11913 | 16.55915 | 621 ft | 22 kts | 206° |
| 2026-04-26 21:34 | 48.11781 | 16.55838 | 617 ft | 14 kts | 158° |
| 2026-04-26 21:35 | 48.11725 | 16.55970 | 623 ft | 17 kts | 115° |
| 2026-04-26 21:35 | 48.11667 | 16.56150 | 619 ft | 21 kts | 115° |
| 2026-04-26 21:35 | 48.11599 | 16.56362 | 620 ft | 25 kts | 115° |
| 2026-04-26 21:35 | 48.11527 | 16.56583 | 617 ft | 24 kts | 116° |
| 2026-04-26 21:36 | 48.11449 | 16.56824 | 615 ft | 27 kts | 116° |
| 2026-04-26 21:36 | 48.11391 | 16.57000 | 611 ft | 27 kts | 116° |
| 2026-04-26 21:36 | 48.11297 | 16.57285 | 620 ft | 25 kts | 116° |
| 2026-04-26 21:36 | 48.11216 | 16.57537 | 612 ft | 28 kts | 115° |
| 2026-04-26 21:37 | 48.11137 | 16.57786 | 620 ft | 25 kts | 115° |
| 2026-04-26 21:37 | 48.11061 | 16.58013 | 612 ft | 20 kts | 117° |
| 2026-04-26 21:37 | 48.11062 | 16.58047 | 613 ft | 0 kts | 42° |
| 2026-04-26 21:37 | 48.11079 | 16.58026 | 619 ft | 11 kts | 284° |
| 2026-04-26 21:38 | 48.11086 | 16.57921 | 609 ft | 5 kts | 233° |
| 2026-04-26 21:38 | 48.11037 | 16.57934 | 614 ft | 12 kts | 163° |
| 2026-04-26 21:38 | 48.10925 | 16.57983 | 621 ft | 18 kts | 164° |
| 2026-04-26 21:38 | 48.10795 | 16.58038 | 621 ft | 22 kts | 164° |
| 2026-04-26 21:39 | 48.10628 | 16.58108 | 616 ft | 28 kts | 164° |
| 2026-04-26 21:39 | 48.10438 | 16.58189 | 612 ft | 28 kts | 164° |
| 2026-04-26 21:39 | 48.10252 | 16.58266 | 615 ft | 27 kts | 164° |
| 2026-04-26 21:39 | 48.10138 | 16.58327 | 612 ft | 11 kts | 144° |
| 2026-04-26 21:40 | 48.10062 | 16.58483 | 611 ft | 24 kts | 118° |
| 2026-04-26 21:40 | 48.09956 | 16.58636 | 615 ft | 15 kts | 186° |
| 2026-04-26 21:40 | 48.09868 | 16.58599 | 623 ft | 16 kts | 188° |
| 2026-04-26 21:40 | 48.09714 | 16.58565 | 612 ft | 23 kts | 189° |
| 2026-04-26 21:41 | 48.09644 | 16.58418 | 624 ft | 11 kts | 285° |
| 2026-04-26 21:41 | 48.09628 | 16.58400 | 620 ft | 9 kts | 190° |
| 2026-04-26 21:41 | 48.09556 | 16.58423 | 620 ft | 11 kts | 165° |
| 2026-04-26 21:41 | 48.09477 | 16.58455 | 609 ft | 13 kts | 165° |
| 2026-04-26 21:42 | 48.09326 | 16.58521 | 621 ft | 30 kts | 164° |
| 2026-04-26 21:42 | 48.09148 | 16.58595 | 622 ft | 27 kts | 164° |
| 2026-04-26 21:42 | 48.08975 | 16.58683 | 609 ft | 26 kts | 144° |
| 2026-04-26 21:42 | 48.08933 | 16.58927 | 614 ft | 26 kts | 66° |
| 2026-04-26 21:43 | 48.09080 | 16.59046 | 612 ft | 19 kts | 348° |
| 2026-04-26 21:43 | 48.09218 | 16.58988 | 615 ft | 25 kts | 344° |
| 2026-04-26 21:43 | 48.09616 | 16.58815 | 621 ft | 95 kts | 344° |
| 2026-04-26 21:43 | 48.10451 | 16.58457 | 624 ft | 152 kts | 343° |
| 2026-04-26 21:44 | 48.11492 | 16.58013 | 1121 ft | 155 kts | 345° |
| 2026-04-26 21:44 | 48.12556 | 16.57659 | 1806 ft | 157 kts | 359° |
| 2026-04-26 21:44 | 48.13566 | 16.58127 | 2427 ft | 158 kts | 30° |
| 2026-04-26 21:44 | 48.14591 | 16.58919 | 2830 ft | 176 kts | 27° |
| 2026-04-26 21:45 | 48.15769 | 16.59763 | 3140 ft | 198 kts | 26° |
| 2026-04-26 21:45 | 48.17095 | 16.60699 | 3467 ft | 223 kts | 26° |
| 2026-04-26 21:45 | 48.18558 | 16.61728 | 3888 ft | 246 kts | 26° |
| 2026-04-26 21:45 | 48.20119 | 16.62970 | 4609 ft | 258 kts | 30° |
| 2026-04-26 21:46 | 48.21681 | 16.64348 | 5502 ft | 263 kts | 30° |
| 2026-04-26 21:46 | 48.23321 | 16.65608 | 6349 ft | 266 kts | 12° |
| 2026-04-26 21:46 | 48.25137 | 16.65632 | 7166 ft | 262 kts | 340° |
| 2026-04-26 21:46 | 48.26762 | 16.64434 | 8026 ft | 261 kts | 327° |
| 2026-04-26 21:47 | 48.28336 | 16.63044 | 8919 ft | 264 kts | 327° |
| 2026-04-26 21:47 | 48.29900 | 16.61643 | 9781 ft | 267 kts | 327° |
| 2026-04-26 21:47 | 48.31520 | 16.60187 | 10401 ft | 280 kts | 327° |
| 2026-04-26 21:47 | 48.33267 | 16.58615 | 10668 ft | 303 kts | 327° |
| 2026-04-26 21:48 | 48.35131 | 16.56945 | 11129 ft | 317 kts | 327° |
| 2026-04-26 21:48 | 48.37049 | 16.55241 | 11831 ft | 322 kts | 327° |
| 2026-04-26 21:48 | 48.38993 | 16.53518 | 12583 ft | 326 kts | 328° |
| 2026-04-26 21:48 | 48.40961 | 16.51778 | 13327 ft | 330 kts | 328° |
| 2026-04-26 21:49 | 48.42930 | 16.50035 | 14053 ft | 334 kts | 328° |
| 2026-04-26 21:49 | 48.44875 | 16.48082 | 14700 ft | 337 kts | 319° |
| 2026-04-26 21:49 | 48.46512 | 16.45555 | 15338 ft | 339 kts | 307° |
| 2026-04-26 21:49 | 48.47763 | 16.42527 | 15981 ft | 342 kts | 296° |
| 2026-04-26 21:50 | 48.48820 | 16.39287 | 16640 ft | 345 kts | 296° |
| 2026-04-26 21:50 | 48.49529 | 16.37124 | 17068 ft | 347 kts | 296° |
| 2026-04-26 21:50 | 48.50972 | 16.32731 | 17923 ft | 352 kts | 296° |
| 2026-04-26 21:50 | 48.52048 | 16.29443 | 18559 ft | 355 kts | 296° |
| 2026-04-26 21:51 | 48.53142 | 16.26090 | 19124 ft | 358 kts | 296° |
| 2026-04-26 21:51 | 48.54252 | 16.22690 | 19684 ft | 361 kts | 296° |
| 2026-04-26 21:51 | 48.55366 | 16.19272 | 20252 ft | 363 kts | 295° |
| 2026-04-26 21:51 | 48.56483 | 16.15834 | 20826 ft | 366 kts | 295° |
| 2026-04-26 21:52 | 48.57592 | 16.12402 | 21377 ft | 369 kts | 294° |
| 2026-04-26 21:52 | 48.58673 | 16.08854 | 21945 ft | 372 kts | 293° |
| 2026-04-26 21:52 | 48.59709 | 16.05262 | 22496 ft | 374 kts | 292° |
| 2026-04-26 21:52 | 48.60385 | 16.02853 | 22852 ft | 376 kts | 291° |
| 2026-04-26 21:53 | 48.61747 | 15.97957 | 23553 ft | 380 kts | 291° |
| 2026-04-26 21:53 | 48.62433 | 15.95504 | 23886 ft | 382 kts | 291° |
| 2026-04-26 21:53 | 48.63478 | 15.91788 | 24315 ft | 384 kts | 291° |
| 2026-04-26 21:53 | 48.64878 | 15.86841 | 24898 ft | 387 kts | 291° |
| 2026-04-26 21:54 | 48.65599 | 15.84306 | 25199 ft | 388 kts | 292° |
| 2026-04-26 21:54 | 48.66669 | 15.80553 | 25614 ft | 389 kts | 291° |
| 2026-04-26 21:54 | 48.67729 | 15.76834 | 26020 ft | 390 kts | 291° |
| 2026-04-26 21:54 | 48.68804 | 15.73052 | 26428 ft | 392 kts | 291° |
| 2026-04-26 21:55 | 48.69883 | 15.69240 | 26827 ft | 393 kts | 291° |
| 2026-04-26 21:55 | 48.70960 | 15.65418 | 27234 ft | 395 kts | 291° |
| 2026-04-26 21:55 | 48.72039 | 15.61578 | 27631 ft | 396 kts | 291° |
| 2026-04-26 21:55 | 48.73107 | 15.57780 | 28015 ft | 397 kts | 291° |
| 2026-04-26 21:56 | 48.74194 | 15.53927 | 28382 ft | 399 kts | 291° |
| 2026-04-26 21:56 | 48.75290 | 15.50031 | 28758 ft | 400 kts | 291° |
| 2026-04-26 21:56 | 48.76383 | 15.46128 | 29116 ft | 402 kts | 291° |
| 2026-04-26 21:56 | 48.77460 | 15.42272 | 29464 ft | 403 kts | 291° |
| 2026-04-26 21:57 | 48.78553 | 15.38343 | 29789 ft | 405 kts | 291° |
| 2026-04-26 21:57 | 48.79651 | 15.34395 | 30103 ft | 406 kts | 291° |
| 2026-04-26 21:57 | 48.80925 | 15.30545 | 30403 ft | 410 kts | 298° |
| 2026-04-26 21:57 | 48.82553 | 15.26965 | 30639 ft | 414 kts | 303° |
| 2026-04-26 21:58 | 48.84247 | 15.23405 | 30870 ft | 416 kts | 303° |
| 2026-04-26 21:58 | 48.85928 | 15.19865 | 31083 ft | 418 kts | 303° |
| 2026-04-26 21:58 | 48.87630 | 15.16266 | 31293 ft | 420 kts | 303° |
| 2026-04-26 21:58 | 48.89355 | 15.12666 | 31558 ft | 421 kts | 306° |
| 2026-04-26 21:59 | 48.91352 | 15.09393 | 31866 ft | 423 kts | 313° |
| 2026-04-26 21:59 | 48.93463 | 15.06336 | 32156 ft | 423 kts | 313° |
| 2026-04-26 21:59 | 48.95591 | 15.03246 | 32460 ft | 422 kts | 313° |
| 2026-04-26 21:59 | 48.97715 | 15.00156 | 32767 ft | 422 kts | 313° |
| 2026-04-26 22:00 | 48.99848 | 14.97050 | 33075 ft | 422 kts | 313° |
| 2026-04-26 22:00 | 49.01970 | 14.93953 | 33378 ft | 421 kts | 313° |
| 2026-04-26 22:00 | 49.04083 | 14.90862 | 33677 ft | 421 kts | 314° |
| 2026-04-26 22:00 | 49.06175 | 14.87802 | 33984 ft | 421 kts | 314° |
| 2026-04-26 22:01 | 49.08287 | 14.84710 | 34282 ft | 420 kts | 314° |
| 2026-04-26 22:01 | 49.10399 | 14.81616 | 34544 ft | 420 kts | 314° |
| 2026-04-26 22:01 | 49.12502 | 14.78525 | 34810 ft | 419 kts | 314° |
| 2026-04-26 22:01 | 49.14581 | 14.75466 | 35066 ft | 419 kts | 314° |
| 2026-04-26 22:02 | 49.16680 | 14.72379 | 35306 ft | 418 kts | 314° |
| 2026-04-26 22:02 | 49.18777 | 14.69289 | 35544 ft | 418 kts | 314° |
| 2026-04-26 22:02 | 49.20871 | 14.66197 | 35783 ft | 418 kts | 314° |
| 2026-04-26 22:02 | 49.22966 | 14.63109 | 36000 ft | 418 kts | 314° |
| 2026-04-26 22:03 | 49.25060 | 14.60021 | 36213 ft | 418 kts | 314° |
| 2026-04-26 22:03 | 49.27152 | 14.56927 | 36296 ft | 417 kts | 314° |
| 2026-04-26 22:03 | 49.31287 | 14.50790 | 36304 ft | 416 kts | 314° |
| 2026-04-26 22:04 | 49.35458 | 14.44577 | 36305 ft | 416 kts | 314° |
| 2026-04-26 22:04 | 49.39581 | 14.38420 | 36303 ft | 416 kts | 315° |
| 2026-04-26 22:05 | 49.43728 | 14.32226 | 36303 ft | 416 kts | 315° |
| 2026-04-26 22:05 | 49.47874 | 14.26028 | 36306 ft | 416 kts | 315° |
| 2026-04-26 22:06 | 49.52018 | 14.19801 | 36305 ft | 416 kts | 315° |
| 2026-04-26 22:06 | 49.56128 | 14.13602 | 36309 ft | 416 kts | 315° |
| 2026-04-26 22:07 | 49.60271 | 14.07350 | 36313 ft | 416 kts | 315° |
| 2026-04-26 22:07 | 49.64381 | 14.01131 | 36313 ft | 416 kts | 315° |
| 2026-04-26 22:08 | 49.68509 | 13.94868 | 36312 ft | 415 kts | 315° |
| 2026-04-26 22:08 | 49.72628 | 13.88596 | 36314 ft | 415 kts | 315° |
| 2026-04-26 22:09 | 49.76712 | 13.82359 | 36316 ft | 414 kts | 315° |
| 2026-04-26 22:09 | 49.80830 | 13.76070 | 36314 ft | 414 kts | 315° |
| 2026-04-26 22:10 | 49.84909 | 13.69829 | 36315 ft | 413 kts | 315° |
| 2026-04-26 22:10 | 49.89000 | 13.63546 | 36317 ft | 413 kts | 315° |
| 2026-04-26 22:11 | 49.93064 | 13.57291 | 36317 ft | 412 kts | 314° |
| 2026-04-26 22:11 | 49.97116 | 13.51024 | 36314 ft | 412 kts | 315° |
| 2026-04-26 22:12 | 50.01185 | 13.44734 | 36313 ft | 412 kts | 315° |
| 2026-04-26 22:12 | 50.05243 | 13.38436 | 36312 ft | 411 kts | 314° |
| 2026-04-26 22:13 | 50.09188 | 13.32044 | 36312 ft | 411 kts | 308° |
| 2026-04-26 22:13 | 50.12458 | 13.24727 | 36314 ft | 410 kts | 305° |
| 2026-04-26 22:14 | 50.15671 | 13.17412 | 36316 ft | 410 kts | 305° |
| 2026-04-26 22:14 | 50.18887 | 13.10105 | 36315 ft | 410 kts | 305° |
| 2026-04-26 22:15 | 50.22127 | 13.02745 | 36317 ft | 409 kts | 305° |
| 2026-04-26 22:15 | 50.25328 | 12.95424 | 36314 ft | 409 kts | 305° |
| 2026-04-26 22:16 | 50.28516 | 12.88093 | 36313 ft | 409 kts | 305° |
| 2026-04-26 22:16 | 50.31712 | 12.80737 | 36314 ft | 408 kts | 305° |
| 2026-04-26 22:17 | 50.34898 | 12.73398 | 36311 ft | 408 kts | 305° |
| 2026-04-26 22:17 | 50.38088 | 12.66017 | 36310 ft | 408 kts | 305° |
| 2026-04-26 22:18 | 50.41209 | 12.58553 | 36309 ft | 408 kts | 303° |
| 2026-04-26 22:18 | 50.44149 | 12.50983 | 36307 ft | 408 kts | 302° |
| 2026-04-26 22:19 | 50.47082 | 12.43329 | 36304 ft | 408 kts | 302° |
| 2026-04-26 22:19 | 50.50018 | 12.35745 | 36303 ft | 408 kts | 303° |
| 2026-04-26 22:20 | 50.52486 | 12.29414 | 36306 ft | 408 kts | 303° |
| 2026-04-26 22:20 | 50.55939 | 12.20539 | 36300 ft | 408 kts | 303° |
| 2026-04-26 22:21 | 50.58881 | 12.12894 | 36299 ft | 407 kts | 302° |
| 2026-04-26 22:21 | 50.61805 | 12.05275 | 36300 ft | 407 kts | 302° |
| 2026-04-26 22:22 | 50.64745 | 11.97621 | 36301 ft | 407 kts | 302° |
| 2026-04-26 22:22 | 50.67667 | 11.90001 | 36305 ft | 407 kts | 302° |
| 2026-04-26 22:23 | 50.70594 | 11.82339 | 36300 ft | 407 kts | 302° |
| 2026-04-26 22:23 | 50.73492 | 11.74726 | 36305 ft | 407 kts | 302° |
| 2026-04-26 22:24 | 50.76391 | 11.67074 | 36303 ft | 407 kts | 302° |
| 2026-04-26 22:24 | 50.79301 | 11.59371 | 36306 ft | 407 kts | 302° |
| 2026-04-26 22:25 | 50.82207 | 11.51665 | 36303 ft | 407 kts | 302° |
| 2026-04-26 22:25 | 50.85082 | 11.44022 | 36303 ft | 407 kts | 302° |
| 2026-04-26 22:26 | 50.87981 | 11.36290 | 36302 ft | 407 kts | 302° |
| 2026-04-26 22:26 | 50.90862 | 11.28575 | 36297 ft | 407 kts | 302° |
| 2026-04-26 22:27 | 50.93732 | 11.20861 | 36302 ft | 407 kts | 302° |
| 2026-04-26 22:27 | 50.96606 | 11.13111 | 36308 ft | 407 kts | 302° |
| 2026-04-26 22:28 | 50.99464 | 11.05387 | 36308 ft | 407 kts | 302° |
| 2026-04-26 22:28 | 51.02334 | 10.97622 | 36308 ft | 407 kts | 302° |
| 2026-04-26 22:29 | 51.05183 | 10.89894 | 36313 ft | 407 kts | 302° |
| 2026-04-26 22:29 | 51.08043 | 10.82105 | 36307 ft | 406 kts | 302° |
| 2026-04-26 22:30 | 51.10873 | 10.74361 | 36312 ft | 406 kts | 302° |
| 2026-04-26 22:30 | 51.13721 | 10.66571 | 36302 ft | 406 kts | 302° |
| 2026-04-26 22:31 | 51.16539 | 10.58819 | 36304 ft | 406 kts | 302° |
| 2026-04-26 22:31 | 51.19368 | 10.50996 | 36304 ft | 406 kts | 302° |
| 2026-04-26 22:32 | 51.22178 | 10.43227 | 36301 ft | 406 kts | 302° |
| 2026-04-26 22:32 | 51.24941 | 10.35388 | 36301 ft | 408 kts | 297° |
| 2026-04-26 22:33 | 51.27787 | 10.22469 | 36299 ft | 410 kts | 291° |
| 2026-04-26 22:34 | 51.29598 | 10.13859 | 36295 ft | 410 kts | 291° |
| 2026-04-26 22:34 | 51.31399 | 10.05238 | 36294 ft | 411 kts | 291° |
| 2026-04-26 22:35 | 51.33206 | 9.96528 | 36292 ft | 411 kts | 291° |
| 2026-04-26 22:35 | 51.34997 | 9.87884 | 36295 ft | 412 kts | 291° |
| 2026-04-26 22:36 | 51.36802 | 9.79183 | 36289 ft | 412 kts | 291° |
| 2026-04-26 22:36 | 51.38598 | 9.70461 | 36289 ft | 412 kts | 291° |
| 2026-04-26 22:37 | 51.40379 | 9.61726 | 36290 ft | 412 kts | 291° |
| 2026-04-26 22:37 | 51.42147 | 9.53024 | 36287 ft | 412 kts | 290° |
| 2026-04-26 22:38 | 51.43911 | 9.44324 | 36288 ft | 413 kts | 290° |
| 2026-04-26 22:38 | 51.45684 | 9.35551 | 36287 ft | 413 kts | 290° |
| 2026-04-26 22:39 | 51.47449 | 9.26760 | 36286 ft | 413 kts | 290° |
| 2026-04-26 22:39 | 51.49195 | 9.18022 | 36284 ft | 413 kts | 290° |
| 2026-04-26 22:40 | 51.50902 | 9.09202 | 36283 ft | 414 kts | 288° |
| 2026-04-26 22:40 | 51.52254 | 9.00182 | 36286 ft | 416 kts | 285° |
| 2026-04-26 22:41 | 51.53411 | 8.91128 | 36289 ft | 416 kts | 284° |
| 2026-04-26 22:41 | 51.54604 | 8.82036 | 36289 ft | 416 kts | 285° |
| 2026-04-26 22:42 | 51.55857 | 8.72957 | 36294 ft | 416 kts | 285° |
| 2026-04-26 22:42 | 51.57117 | 8.63861 | 36293 ft | 416 kts | 285° |
| 2026-04-26 22:43 | 51.58363 | 8.54759 | 36295 ft | 416 kts | 285° |
| 2026-04-26 22:43 | 51.59589 | 8.45698 | 36291 ft | 417 kts | 285° |
| 2026-04-26 22:44 | 51.60586 | 8.38263 | 36289 ft | 417 kts | 284° |
| 2026-04-26 22:44 | 51.62004 | 8.27636 | 36286 ft | 417 kts | 284° |
| 2026-04-26 22:45 | 51.63015 | 8.20022 | 36281 ft | 418 kts | 284° |
| 2026-04-26 22:45 | 51.64226 | 8.10849 | 36281 ft | 418 kts | 284° |
| 2026-04-26 22:46 | 51.65426 | 8.01712 | 36281 ft | 419 kts | 284° |
| 2026-04-26 22:46 | 51.66620 | 7.92508 | 36290 ft | 419 kts | 284° |
| 2026-04-26 22:47 | 51.67806 | 7.83336 | 36284 ft | 420 kts | 284° |
| 2026-04-26 22:47 | 51.68992 | 7.74112 | 36291 ft | 420 kts | 284° |
| 2026-04-26 22:48 | 51.70173 | 7.64868 | 36244 ft | 422 kts | 283° |
| 2026-04-26 22:48 | 51.70683 | 7.60192 | 35980 ft | 423 kts | 278° |
| 2026-04-26 22:48 | 51.70791 | 7.55497 | 35728 ft | 426 kts | 270° |
| 2026-04-26 22:48 | 51.70592 | 7.50703 | 35036 ft | 430 kts | 268° |
| 2026-04-26 22:49 | 51.70367 | 7.45857 | 34105 ft | 435 kts | 268° |
| 2026-04-26 22:49 | 51.70131 | 7.40973 | 33140 ft | 438 kts | 268° |
| 2026-04-26 22:49 | 51.69888 | 7.36116 | 32601 ft | 431 kts | 268° |
| 2026-04-26 22:49 | 51.69644 | 7.31298 | 31966 ft | 427 kts | 268° |
| 2026-04-26 22:50 | 51.69407 | 7.26608 | 31361 ft | 423 kts | 268° |
| 2026-04-26 22:50 | 51.69170 | 7.21895 | 30751 ft | 420 kts | 268° |
| 2026-04-26 22:50 | 51.68939 | 7.17226 | 30117 ft | 416 kts | 268° |
| 2026-04-26 22:50 | 51.68708 | 7.12589 | 29508 ft | 412 kts | 268° |
| 2026-04-26 22:51 | 51.68480 | 7.08011 | 28927 ft | 407 kts | 268° |
| 2026-04-26 22:51 | 51.68256 | 7.03530 | 28362 ft | 403 kts | 268° |
| 2026-04-26 22:51 | 51.68029 | 6.99046 | 27790 ft | 399 kts | 268° |
| 2026-04-26 22:51 | 51.67799 | 6.94603 | 27238 ft | 395 kts | 267° |
| 2026-04-26 22:52 | 51.67569 | 6.90215 | 26680 ft | 392 kts | 267° |
| 2026-04-26 22:52 | 51.67339 | 6.85858 | 26171 ft | 388 kts | 267° |
| 2026-04-26 22:52 | 51.67110 | 6.81523 | 25651 ft | 386 kts | 267° |
| 2026-04-26 22:52 | 51.66883 | 6.77238 | 25159 ft | 383 kts | 267° |
| 2026-04-26 22:53 | 51.66656 | 6.73022 | 24668 ft | 380 kts | 267° |
| 2026-04-26 22:53 | 51.66454 | 6.69272 | 24238 ft | 378 kts | 267° |
| 2026-04-26 22:53 | 51.66225 | 6.65057 | 23727 ft | 377 kts | 266° |
| 2026-04-26 22:53 | 51.65994 | 6.60857 | 23205 ft | 373 kts | 266° |
| 2026-04-26 22:54 | 51.65765 | 6.56712 | 22732 ft | 370 kts | 266° |
| 2026-04-26 22:54 | 51.65538 | 6.52655 | 22264 ft | 366 kts | 267° |
| 2026-04-26 22:54 | 51.65309 | 6.48573 | 21783 ft | 363 kts | 267° |
| 2026-04-26 22:54 | 51.65084 | 6.44522 | 21294 ft | 361 kts | 267° |
| 2026-04-26 22:55 | 51.64858 | 6.40495 | 20819 ft | 359 kts | 267° |
| 2026-04-26 22:55 | 51.64637 | 6.36552 | 20329 ft | 357 kts | 267° |
| 2026-04-26 22:55 | 51.64413 | 6.32574 | 19844 ft | 356 kts | 267° |
| 2026-04-26 22:55 | 51.64187 | 6.28616 | 19356 ft | 355 kts | 267° |
| 2026-04-26 22:56 | 51.63956 | 6.24642 | 18866 ft | 354 kts | 267° |
| 2026-04-26 22:56 | 51.63724 | 6.20692 | 18349 ft | 354 kts | 267° |
| 2026-04-26 22:56 | 51.63492 | 6.16749 | 17850 ft | 352 kts | 267° |
| 2026-04-26 22:56 | 51.63260 | 6.12830 | 17370 ft | 349 kts | 266° |
| 2026-04-26 22:57 | 51.62808 | 6.09050 | 16912 ft | 350 kts | 255° |
| 2026-04-26 22:57 | 51.61985 | 6.05362 | 16436 ft | 349 kts | 252° |
| 2026-04-26 22:57 | 51.61144 | 6.01694 | 15978 ft | 347 kts | 252° |
| 2026-04-26 22:57 | 51.60308 | 5.98043 | 15510 ft | 346 kts | 252° |
| 2026-04-26 22:58 | 51.59479 | 5.94409 | 15048 ft | 345 kts | 252° |
| 2026-04-26 22:58 | 51.58666 | 5.90839 | 14590 ft | 343 kts | 252° |
| 2026-04-26 22:58 | 51.57844 | 5.87233 | 14126 ft | 342 kts | 252° |
| 2026-04-26 22:58 | 51.57022 | 5.83644 | 13621 ft | 341 kts | 252° |
| 2026-04-26 22:59 | 51.56230 | 5.80197 | 13163 ft | 338 kts | 252° |
| 2026-04-26 22:59 | 51.55416 | 5.76659 | 12702 ft | 335 kts | 252° |
| 2026-04-26 22:59 | 51.54620 | 5.73201 | 12235 ft | 332 kts | 252° |
| 2026-04-26 22:59 | 51.53819 | 5.69730 | 11769 ft | 330 kts | 252° |
| 2026-04-26 23:00 | 51.53023 | 5.66285 | 11301 ft | 328 kts | 252° |
| 2026-04-26 23:00 | 51.52228 | 5.62857 | 10832 ft | 326 kts | 252° |
| 2026-04-26 23:00 | 51.51442 | 5.59475 | 10532 ft | 318 kts | 252° |
| 2026-04-26 23:00 | 51.50684 | 5.56222 | 10412 ft | 305 kts | 252° |
| 2026-04-26 23:01 | 51.49952 | 5.53088 | 10282 ft | 294 kts | 252° |
| 2026-04-26 23:01 | 51.49239 | 5.50046 | 9967 ft | 289 kts | 252° |
| 2026-04-26 23:01 | 51.48527 | 5.47003 | 9548 ft | 288 kts | 252° |
| 2026-04-26 23:01 | 51.47839 | 5.44051 | 9164 ft | 286 kts | 252° |
| 2026-04-26 23:02 | 51.47134 | 5.41027 | 8720 ft | 285 kts | 252° |
| 2026-04-26 23:02 | 51.46622 | 5.38029 | 8327 ft | 281 kts | 263° |
| 2026-04-26 23:02 | 51.46313 | 5.34935 | 7908 ft | 280 kts | 263° |
| 2026-04-26 23:02 | 51.46002 | 5.31861 | 7496 ft | 278 kts | 263° |
| 2026-04-26 23:03 | 51.45692 | 5.28821 | 6936 ft | 275 kts | 263° |
| 2026-04-26 23:03 | 51.45387 | 5.25834 | 6223 ft | 273 kts | 263° |
| 2026-04-26 23:03 | 51.44893 | 5.22898 | 5524 ft | 272 kts | 248° |
| 2026-04-26 23:03 | 51.43893 | 5.20329 | 4838 ft | 272 kts | 231° |
| 2026-04-26 23:04 | 51.42470 | 5.18341 | 4120 ft | 272 kts | 216° |
| 2026-04-26 23:04 | 51.40916 | 5.16631 | 3541 ft | 265 kts | 216° |
| 2026-04-26 23:04 | 51.39307 | 5.15508 | 3320 ft | 247 kts | 188° |
| 2026-04-26 23:04 | 51.37655 | 5.15774 | 3181 ft | 236 kts | 157° |
| 2026-04-26 23:05 | 51.36365 | 5.17256 | 3064 ft | 226 kts | 127° |
| 2026-04-26 23:05 | 51.35431 | 5.19271 | 2952 ft | 225 kts | 124° |
| 2026-04-26 23:05 | 51.34518 | 5.21299 | 2837 ft | 223 kts | 121° |
| 2026-04-26 23:05 | 51.34070 | 5.23513 | 2718 ft | 206 kts | 83° |
| 2026-04-26 23:06 | 51.34521 | 5.25564 | 2492 ft | 195 kts | 47° |
| 2026-04-26 23:06 | 51.35601 | 5.26862 | 2153 ft | 196 kts | 30° |
| 2026-04-26 23:06 | 51.36723 | 5.28049 | 2031 ft | 187 kts | 33° |
| 2026-04-26 23:06 | 51.37723 | 5.29185 | 1999 ft | 164 kts | 34° |
| 2026-04-26 23:07 | 51.38589 | 5.30179 | 1970 ft | 146 kts | 33° |
| 2026-04-26 23:07 | 51.39433 | 5.31137 | 1527 ft | 147 kts | 34° |
| 2026-04-26 23:07 | 51.40216 | 5.32075 | 1272 ft | 136 kts | 34° |
| 2026-04-26 23:07 | 51.40976 | 5.32929 | 947 ft | 131 kts | 34° |
| 2026-04-26 23:08 | 51.41718 | 5.33754 | 721 ft | 130 kts | 34° |
| 2026-04-26 23:08 | 51.42453 | 5.34564 | 533 ft | 130 kts | 33° |
| 2026-04-26 23:08 | 51.43197 | 5.35403 | 317 ft | 131 kts | 35° |
| 2026-04-26 23:08 | 51.43942 | 5.36242 | 150 ft | 131 kts | 35° |
| 2026-04-26 23:09 | 51.44657 | 5.37055 | 65 ft | 109 kts | 34° |
| 2026-04-26 23:09 | 51.45138 | 5.37592 | 75 ft | 62 kts | 34° |
| 2026-04-26 23:09 | 51.45451 | 5.37941 | 75 ft | 49 kts | 35° |
| 2026-04-26 23:09 | 51.45698 | 5.38217 | 68 ft | 41 kts | 35° |
| 2026-04-26 23:10 | 51.45859 | 5.38398 | 77 ft | 23 kts | 35° |
| 2026-04-26 23:10 | 51.45901 | 5.38537 | 72 ft | 13 kts | 111° |
| 2026-04-26 23:10 | 51.45849 | 5.38646 | 72 ft | 10 kts | 125° |
| 2026-04-26 23:10 | 51.45815 | 5.38726 | 75 ft | 8 kts | 124° |
| 2026-04-26 23:11 | 51.45781 | 5.38794 | 69 ft | 7 kts | 151° |
| 2026-04-26 23:11 | 51.45742 | 5.38777 | 71 ft | 6 kts | 213° |
| 2026-04-26 23:11 | 51.45711 | 5.38743 | 72 ft | 5 kts | 215° |
| 2026-04-26 23:11 | 51.45685 | 5.38714 | 70 ft | 4 kts | 214° |
| 2026-04-26 23:12 | 51.45661 | 5.38692 | 73 ft | 3 kts | 193° |
| 2026-04-26 23:12 | 51.45648 | 5.38709 | 70 ft | 2 kts | 127° |
| 2026-04-26 23:12 | 51.45640 | 5.38725 | 70 ft | 2 kts | 126° |
| 2026-04-26 23:12 | 51.45633 | 5.38742 | 75 ft | 2 kts | 126° |
| 2026-04-26 23:13 | 51.45626 | 5.38757 | 72 ft | 1 kts | 126° |
| 2026-04-26 23:13 | 51.45621 | 5.38769 | 75 ft | 1 kts | 126° |
| 2026-04-26 23:13 | 51.45617 | 5.38777 | 65 ft | 1 kts | 125° |
| 2026-04-26 23:13 | 51.45615 | 5.38781 | 66 ft | 0 kts | 125° |
| 2026-04-26 23:14 | 51.45612 | 5.38788 | 66 ft | 0 kts | 125° |